sensor_id;sensor_type;location;lat;lon;timestamp;pressure;altitude;pressure_sealevel;temperature;humidity
10638;BME280;47007;49.252;8.904;2023-04-02T00:00:21;98951.97;;;9.88;100.00
10638;BME280;47007;49.252;8.904;2023-04-02T00:03:06;98944.00;;;9.75;100.00
10638;BME280;47007;49.252;8.904;2023-04-02T00:04:40;98957.03;;;9.83;100.00
10638;BME280;47007;49.252;8.904;2023-04-02T00:07:24;98952.56;;;9.83;100.00
10638;BME280;47007;49.252;8.904;2023-04-02T00:08:23;98950.50;;;9.79;100.00
10638;BME280;47007;49.252;8.904;2023-04-02T00:09:55;98960.69;;;9.82;100.00
10638;BME280;47007;49.252;8.904;2023-04-02T00:10:46;98950.94;;;9.82;100.00
10638;BME280;47007;49.252;8.904;2023-04-02T00:11:34;98952.94;;;9.73;100.00
10638;BME280;47007;49.252;8.904;2023-04-02T00:12:18;98969.03;;;9.79;100.00
10638;BME280;47007;49.252;8.904;2023-04-02T00:13:52;98961.50;;;9.76;100.00
10638;BME280;47007;49.252;8.904;2023-04-02T00:14:34;98942.94;;;9.62;100.00
10638;BME280;47007;49.252;8.904;2023-04-02T00:15:17;98904.78;;;9.37;100.00
10638;BME280;47007;49.252;8.904;2023-04-02T00:16:00;98903.78;;;9.38;100.00
10638;BME280;47007;49.252;8.904;2023-04-02T00:16:44;98940.63;;;9.53;100.00
10638;BME280;47007;49.252;8.904;2023-04-02T00:17:27;98897.22;;;9.27;100.00
10638;BME280;47007;49.252;8.904;2023-04-02T00:18:14;98971.22;;;9.68;100.00
10638;BME280;47007;49.252;8.904;2023-04-02T00:19:00;98924.94;;;9.38;100.00
10638;BME280;47007;49.252;8.904;2023-04-02T00:20:03;98958.41;;;9.65;100.00
10638;BME280;47007;49.252;8.904;2023-04-02T00:20:58;98964.69;;;9.64;100.00
10638;BME280;47007;49.252;8.904;2023-04-02T00:21:43;98910.03;;;9.30;100.00
10638;BME280;47007;49.252;8.904;2023-04-02T00:22:29;98939.00;;;9.45;100.00
10638;BME280;47007;49.252;8.904;2023-04-02T00:23:13;98952.28;;;9.58;100.00
10638;BME280;47007;49.252;8.904;2023-04-02T00:23:59;98924.50;;;9.34;100.00
10638;BME280;47007;49.252;8.904;2023-04-02T00:24:42;98941.25;;;9.48;100.00
10638;BME280;47007;49.252;8.904;2023-04-02T00:25:26;98961.25;;;9.64;100.00
10638;BME280;47007;49.252;8.904;2023-04-02T00:26:30;98963.91;;;9.64;100.00
10638;BME280;47007;49.252;8.904;2023-04-02T00:27:13;98873.97;;;9.10;100.00
10638;BME280;47007;49.252;8.904;2023-04-02T00:27:56;98877.63;;;9.09;100.00
10638;BME280;47007;49.252;8.904;2023-04-02T00:28:39;98971.22;;;9.68;100.00
10638;BME280;47007;49.252;8.904;2023-04-02T00:29:22;98985.28;;;9.69;100.00
10638;BME280;47007;49.252;8.904;2023-04-02T00:30:06;98966.56;;;9.64;100.00
10638;BME280;47007;49.252;8.904;2023-04-02T00:30:53;98968.78;;;9.67;100.00
10638;BME280;47007;49.252;8.904;2023-04-02T00:31:42;98961.66;;;9.61;100.00
10638;BME280;47007;49.252;8.904;2023-04-02T00:32:32;98967.97;;;9.66;100.00
10638;BME280;47007;49.252;8.904;2023-04-02T00:33:18;98929.81;;;9.41;100.00
10638;BME280;47007;49.252;8.904;2023-04-02T00:34:07;98948.56;;;9.53;100.00
10638;BME280;47007;49.252;8.904;2023-04-02T00:34:49;98953.91;;;9.59;100.00
10638;BME280;47007;49.252;8.904;2023-04-02T00:35:37;98960.22;;;9.58;100.00
10638;BME280;47007;49.252;8.904;2023-04-02T00:36:20;98956.94;;;9.56;100.00
10638;BME280;47007;49.252;8.904;2023-04-02T00:37:04;98936.97;;;9.47;100.00
10638;BME280;47007;49.252;8.904;2023-04-02T00:37:46;98975.72;;;9.68;100.00
10638;BME280;47007;49.252;8.904;2023-04-02T00:38:32;98972.06;;;9.69;100.00
10638;BME280;47007;49.252;8.904;2023-04-02T00:39:19;98947.16;;;9.50;100.00
10638;BME280;47007;49.252;8.904;2023-04-02T00:40:53;98899.22;;;9.19;100.00
10638;BME280;47007;49.252;8.904;2023-04-02T00:41:37;98976.09;;;9.65;100.00
10638;BME280;47007;49.252;8.904;2023-04-02T00:42:19;98979.56;;;9.65;100.00
10638;BME280;47007;49.252;8.904;2023-04-02T00:43:04;98971.84;;;9.64;100.00
10638;BME280;47007;49.252;8.904;2023-04-02T00:43:47;98960.59;;;9.55;100.00
10638;BME280;47007;49.252;8.904;2023-04-02T00:44:36;98974.69;;;9.62;100.00
10638;BME280;47007;49.252;8.904;2023-04-02T00:45:25;98958.97;;;9.54;100.00
10638;BME280;47007;49.252;8.904;2023-04-02T00:46:14;98970.59;;;9.66;100.00
10638;BME280;47007;49.252;8.904;2023-04-02T00:46:56;98975.09;;;9.66;100.00
10638;BME280;47007;49.252;8.904;2023-04-02T00:47:39;98950.41;;;9.52;100.00
10638;BME280;47007;49.252;8.904;2023-04-02T00:48:35;98973.44;;;9.65;100.00
10638;BME280;47007;49.252;8.904;2023-04-02T00:49:30;98971.22;;;9.62;100.00
10638;BME280;47007;49.252;8.904;2023-04-02T00:51:19;98970.81;;;9.65;100.00
10638;BME280;47007;49.252;8.904;2023-04-02T00:52:14;98970.84;;;9.71;100.00
10638;BME280;47007;49.252;8.904;2023-04-02T00:52:58;98974.13;;;9.73;100.00
10638;BME280;47007;49.252;8.904;2023-04-02T00:53:46;98967.81;;;9.75;100.00
10638;BME280;47007;49.252;8.904;2023-04-02T00:54:31;98970.66;;;9.73;100.00
10638;BME280;47007;49.252;8.904;2023-04-02T00:55:33;98918.03;;;9.37;100.00
10638;BME280;47007;49.252;8.904;2023-04-02T00:56:30;98951.84;;;9.55;100.00
10638;BME280;47007;49.252;8.904;2023-04-02T00:57:16;98953.28;;;9.57;100.00
10638;BME280;47007;49.252;8.904;2023-04-02T00:58:00;98956.38;;;9.61;100.00
10638;BME280;47007;49.252;8.904;2023-04-02T00:58:43;98970.03;;;9.71;100.00
10638;BME280;47007;49.252;8.904;2023-04-02T00:59:30;98966.13;;;9.67;100.00
10638;BME280;47007;49.252;8.904;2023-04-02T01:00:57;98964.09;;;9.62;100.00
10638;BME280;47007;49.252;8.904;2023-04-02T01:01:39;98951.22;;;9.53;100.00
10638;BME280;47007;49.252;8.904;2023-04-02T01:02:34;98970.78;;;9.58;100.00
10638;BME280;47007;49.252;8.904;2023-04-02T01:04:04;98973.88;;;9.68;100.00
10638;BME280;47007;49.252;8.904;2023-04-02T01:05:20;98974.69;;;9.69;100.00
10638;BME280;47007;49.252;8.904;2023-04-02T01:06:40;98974.69;;;9.69;100.00
10638;BME280;47007;49.252;8.904;2023-04-02T01:08:32;98983.84;;;9.66;100.00
10638;BME280;47007;49.252;8.904;2023-04-02T01:09:37;98976.31;;;9.63;100.00
10638;BME280;47007;49.252;8.904;2023-04-02T01:10:34;98983.22;;;9.64;100.00
10638;BME280;47007;49.252;8.904;2023-04-02T01:16:20;98988.34;;;9.72;100.00
10638;BME280;47007;49.252;8.904;2023-04-02T01:17:34;98989.19;;;9.73;100.00
10638;BME280;47007;49.252;8.904;2023-04-02T01:19:48;98991.81;;;9.73;100.00
10638;BME280;47007;49.252;8.904;2023-04-02T01:21:02;98993.84;;;9.71;100.00
10638;BME280;47007;49.252;8.904;2023-04-02T01:21:56;98985.28;;;9.69;100.00
10638;BME280;47007;49.252;8.904;2023-04-02T01:24:41;98996.28;;;9.72;100.00
10638;BME280;47007;49.252;8.904;2023-04-02T01:25:37;98983.66;;;9.68;100.00
10638;BME280;47007;49.252;8.904;2023-04-02T01:27:21;98982.22;;;9.65;100.00
10638;BME280;47007;49.252;8.904;2023-04-02T01:28:19;98978.31;;;9.55;100.00
10638;BME280;47007;49.252;8.904;2023-04-02T01:29:10;99001.16;;;9.69;100.00
10638;BME280;47007;49.252;8.904;2023-04-02T01:29:55;98972.38;;;9.53;100.00
10638;BME280;47007;49.252;8.904;2023-04-02T01:30:38;98989.75;;;9.68;100.00
10638;BME280;47007;49.252;8.904;2023-04-02T01:31:22;99000.34;;;9.68;100.00
10638;BME280;47007;49.252;8.904;2023-04-02T01:32:07;98990.56;;;9.69;100.00
10638;BME280;47007;49.252;8.904;2023-04-02T01:32:51;99003.00;;;9.68;100.00
10638;BME280;47007;49.252;8.904;2023-04-02T01:33:34;98994.84;;;9.63;100.00
10638;BME280;47007;49.252;8.904;2023-04-02T01:34:19;98998.50;;;9.62;100.00
10638;BME280;47007;49.252;8.904;2023-04-02T01:35:04;99004.38;;;9.64;100.00
10638;BME280;47007;49.252;8.904;2023-04-02T01:35:49;99000.94;;;9.64;100.00
10638;BME280;47007;49.252;8.904;2023-04-02T01:37:25;98989.13;;;9.66;100.00
10638;BME280;47007;49.252;8.904;2023-04-02T01:37:56;99000.34;;;9.68;100.00
10638;BME280;47007;49.252;8.904;2023-04-02T01:38:50;98987.28;;;9.60;100.00
10638;BME280;47007;49.252;8.904;2023-04-02T01:41:44;98981.19;;;9.60;100.00
10638;BME280;47007;49.252;8.904;2023-04-02T01:42:43;98988.09;;;9.61;100.00
10638;BME280;47007;49.252;8.904;2023-04-02T01:43:33;99001.97;;;9.69;100.00
10638;BME280;47007;49.252;8.904;2023-04-02T01:44:26;98982.38;;;9.57;100.00
10638;BME280;47007;49.252;8.904;2023-04-02T01:45:15;99004.00;;;9.67;100.00
10638;BME280;47007;49.252;8.904;2023-04-02T01:45:58;99011.13;;;9.67;100.00
10638;BME280;47007;49.252;8.904;2023-04-02T01:46:41;99011.94;;;9.67;100.00
10638;BME280;47007;49.252;8.904;2023-04-02T01:47:23;99014.59;;;9.67;100.00
10638;BME280;47007;49.252;8.904;2023-04-02T01:48:17;99006.84;;;9.66;100.00
10638;BME280;47007;49.252;8.904;2023-04-02T01:49:09;99018.03;;;9.68;100.00
10638;BME280;47007;49.252;8.904;2023-04-02T01:49:57;99009.28;;;9.67;100.00
10638;BME280;47007;49.252;8.904;2023-04-02T01:50:43;99006.44;;;9.62;100.00
10638;BME280;47007;49.252;8.904;2023-04-02T01:51:32;99019.72;;;9.76;100.00
10638;BME280;47007;49.252;8.904;2023-04-02T01:52:25;99029.28;;;9.77;100.00
10638;BME280;47007;49.252;8.904;2023-04-02T01:53:17;99026.03;;;9.75;100.00
10638;BME280;47007;49.252;8.904;2023-04-02T01:54:01;99025.22;;;9.74;100.00
10638;BME280;47007;49.252;8.904;2023-04-02T01:54:44;99027.03;;;9.73;100.00
10638;BME280;47007;49.252;8.904;2023-04-02T01:56:13;99016.41;;;9.67;100.00
10638;BME280;47007;49.252;8.904;2023-04-02T01:56:55;99029.88;;;9.72;100.00
10638;BME280;47007;49.252;8.904;2023-04-02T01:57:41;99004.38;;;9.58;100.00
10638;BME280;47007;49.252;8.904;2023-04-02T01:58:28;98987.22;;;9.47;100.00
10638;BME280;47007;49.252;8.904;2023-04-02T01:59:16;99024.59;;;9.72;100.00
10638;BME280;47007;49.252;8.904;2023-04-02T02:00:00;99021.50;;;9.68;100.00
10638;BME280;47007;49.252;8.904;2023-04-02T02:00:52;99003.97;;;9.61;100.00
10638;BME280;47007;49.252;8.904;2023-04-02T02:01:47;99014.19;;;9.64;100.00
10638;BME280;47007;49.252;8.904;2023-04-02T02:02:33;99025.16;;;9.67;100.00
10638;BME280;47007;49.252;8.904;2023-04-02T02:03:16;99020.06;;;9.66;100.00
10638;BME280;47007;49.252;8.904;2023-04-02T02:04:00;99028.00;;;9.66;100.00
10638;BME280;47007;49.252;8.904;2023-04-02T02:04:42;99020.25;;;9.64;100.00
10638;BME280;47007;49.252;8.904;2023-04-02T02:05:24;99021.06;;;9.58;100.00
10638;BME280;47007;49.252;8.904;2023-04-02T02:06:12;99019.84;;;9.61;100.00
10638;BME280;47007;49.252;8.904;2023-04-02T02:06:55;99016.16;;;9.55;100.00
10638;BME280;47007;49.252;8.904;2023-04-02T02:07:39;99017.41;;;9.59;100.00
10638;BME280;47007;49.252;8.904;2023-04-02T02:08:32;99027.16;;;9.59;100.00
10638;BME280;47007;49.252;8.904;2023-04-02T02:09:28;99013.31;;;9.57;100.00
10638;BME280;47007;49.252;8.904;2023-04-02T02:10:16;99013.28;;;9.50;100.00
10638;BME280;47007;49.252;8.904;2023-04-02T02:10:59;99006.13;;;9.44;100.00
10638;BME280;47007;49.252;8.904;2023-04-02T02:11:41;99020.22;;;9.51;100.00
10638;BME280;47007;49.252;8.904;2023-04-02T02:12:23;99028.75;;;9.53;100.00
10638;BME280;47007;49.252;8.904;2023-04-02T02:13:05;99034.88;;;9.54;100.00
10638;BME280;47007;49.252;8.904;2023-04-02T02:13:54;99028.97;;;9.52;100.00
10638;BME280;47007;49.252;8.904;2023-04-02T02:14:36;98974.66;;;9.15;100.00
10638;BME280;47007;49.252;8.904;2023-04-02T02:15:20;99020.16;;;9.45;100.00
10638;BME280;47007;49.252;8.904;2023-04-02T02:16:03;99001.97;;;9.28;100.00
10638;BME280;47007;49.252;8.904;2023-04-02T02:16:46;99023.81;;;9.37;100.00
10638;BME280;47007;49.252;8.904;2023-04-02T02:17:29;99009.50;;;9.25;100.00
10638;BME280;47007;49.252;8.904;2023-04-02T02:18:19;99023.72;;;9.24;100.00
10638;BME280;47007;49.252;8.904;2023-04-02T02:19:04;99039.97;;;9.21;100.00
10638;BME280;47007;49.252;8.904;2023-04-02T02:19:48;99032.03;;;9.21;100.00
10638;BME280;47007;49.252;8.904;2023-04-02T02:20:33;99030.66;;;9.25;100.00
10638;BME280;47007;49.252;8.904;2023-04-02T02:22:36;99020.47;;;9.28;100.00
10638;BME280;47007;49.252;8.904;2023-04-02T02:23:20;98937.63;;;8.80;100.00
10638;BME280;47007;49.252;8.904;2023-04-02T02:24:03;99032.56;;;9.38;100.00
10638;BME280;47007;49.252;8.904;2023-04-02T02:24:45;99023.56;;;9.32;100.00
10638;BME280;47007;49.252;8.904;2023-04-02T02:25:31;99040.69;;;9.43;100.00
10638;BME280;47007;49.252;8.904;2023-04-02T02:26:14;99039.50;;;9.45;100.00
10638;BME280;47007;49.252;8.904;2023-04-02T02:27:26;99034.66;;;9.49;100.00
10638;BME280;47007;49.252;8.904;2023-04-02T02:28:30;99041.38;;;9.51;100.00
10638;BME280;47007;49.252;8.904;2023-04-02T02:29:17;99040.34;;;9.52;100.00
10638;BME280;47007;49.252;8.904;2023-04-02T02:31:15;99041.34;;;9.45;100.00
10638;BME280;47007;49.252;8.904;2023-04-02T02:32:01;99045.38;;;9.41;100.00
10638;BME280;47007;49.252;8.904;2023-04-02T02:34:14;99045.78;;;9.38;100.00
10638;BME280;47007;49.252;8.904;2023-04-02T02:35:27;99053.72;;;9.38;100.00
10638;BME280;47007;49.252;8.904;2023-04-02T02:37:26;99058.41;;;9.42;100.00
10638;BME280;47007;49.252;8.904;2023-04-02T02:38:37;99047.44;;;9.45;100.00
10638;BME280;47007;49.252;8.904;2023-04-02T02:39:39;99051.72;;;9.46;100.00
10638;BME280;47007;49.252;8.904;2023-04-02T02:40:30;99044.16;;;9.43;100.00
10638;BME280;47007;49.252;8.904;2023-04-02T02:42:40;99050.09;;;9.45;100.00
10638;BME280;47007;49.252;8.904;2023-04-02T02:43:25;99046.19;;;9.41;100.00
10638;BME280;47007;49.252;8.904;2023-04-02T02:44:50;99042.13;;;9.39;100.00
10638;BME280;47007;49.252;8.904;2023-04-02T02:45:35;99070.06;;;9.54;100.00
10638;BME280;47007;49.252;8.904;2023-04-02T02:46:21;99047.69;;;9.50;100.00
10638;BME280;47007;49.252;8.904;2023-04-02T02:47:25;99058.53;;;9.62;100.00
10638;BME280;47007;49.252;8.904;2023-04-02T02:48:14;99058.34;;;9.63;100.00
10638;BME280;47007;49.252;8.904;2023-04-02T02:48:59;99059.53;;;9.61;100.00
10638;BME280;47007;49.252;8.904;2023-04-02T02:49:46;99067.47;;;9.61;100.00
10638;BME280;47007;49.252;8.904;2023-04-02T02:50:31;99068.28;;;9.61;100.00
10638;BME280;47007;49.252;8.904;2023-04-02T02:51:24;99067.47;;;9.61;100.00
10638;BME280;47007;49.252;8.904;2023-04-02T02:52:59;99064.22;;;9.65;100.00
10638;BME280;47007;49.252;8.904;2023-04-02T02:53:50;99062.22;;;9.67;100.00
10638;BME280;47007;49.252;8.904;2023-04-02T02:54:39;99059.16;;;9.64;100.00
10638;BME280;47007;49.252;8.904;2023-04-02T02:55:29;99067.28;;;9.62;100.00
10638;BME280;47007;49.252;8.904;2023-04-02T02:56:21;99063.56;;;9.57;100.00
10638;BME280;47007;49.252;8.904;2023-04-02T02:57:07;99069.69;;;9.57;100.00
10638;BME280;47007;49.252;8.904;2023-04-02T02:57:55;99076.00;;;9.56;100.00
10638;BME280;47007;49.252;8.904;2023-04-02T02:58:42;99053.16;;;9.49;100.00
10638;BME280;47007;49.252;8.904;2023-04-02T02:59:31;99063.38;;;9.52;100.00
10638;BME280;47007;49.252;8.904;2023-04-02T03:00:14;99067.03;;;9.57;100.00
10638;BME280;47007;49.252;8.904;2023-04-02T03:01:00;99070.69;;;9.56;100.00
10638;BME280;47007;49.252;8.904;2023-04-02T03:01:42;99071.09;;;9.53;100.00
10638;BME280;47007;49.252;8.904;2023-04-02T03:02:26;99079.63;;;9.49;100.00
10638;BME280;47007;49.252;8.904;2023-04-02T03:03:13;99074.50;;;9.47;100.00
10638;BME280;47007;49.252;8.904;2023-04-02T03:03:58;99065.31;;;9.43;100.00
10638;BME280;47007;49.252;8.904;2023-04-02T03:04:40;99079.63;;;9.49;100.00
10638;BME280;47007;49.252;8.904;2023-04-02T03:05:28;99052.47;;;9.33;100.00
10638;BME280;47007;49.252;8.904;2023-04-02T03:06:16;99074.50;;;9.47;100.00
10638;BME280;47007;49.252;8.904;2023-04-02T03:07:06;99034.25;;;9.17;100.00
10638;BME280;47007;49.252;8.904;2023-04-02T03:07:51;99066.88;;;9.31;100.00
10638;BME280;47007;49.252;8.904;2023-04-02T03:11:01;99068.06;;;9.28;100.00
10638;BME280;47007;49.252;8.904;2023-04-02T03:11:52;99086.47;;;9.36;100.00
10638;BME280;47007;49.252;8.904;2023-04-02T03:13:33;99092.59;;;9.44;100.00
10638;BME280;47007;49.252;8.904;2023-04-02T03:14:39;99073.88;;;9.45;100.00
10638;BME280;47007;49.252;8.904;2023-04-02T03:16:09;99073.44;;;9.42;100.00
10638;BME280;47007;49.252;8.904;2023-04-02T03:16:38;99087.31;;;9.44;100.00
10638;BME280;47007;49.252;8.904;2023-04-02T03:19:37;99086.28;;;9.45;100.00
10638;BME280;47007;49.252;8.904;2023-04-02T03:21:46;99094.28;;;9.51;100.00
10638;BME280;47007;49.252;8.904;2023-04-02T03:22:37;99017.91;;;9.07;100.00
10638;BME280;47007;49.252;8.904;2023-04-02T03:24:31;99095.13;;;9.58;100.00
10638;BME280;47007;49.252;8.904;2023-04-02T03:25:00;99089.03;;;9.58;100.00
10638;BME280;47007;49.252;8.904;2023-04-02T03:27:09;99095.72;;;9.54;100.00
10638;BME280;47007;49.252;8.904;2023-04-02T03:27:58;99076.53;;;9.45;100.00
10638;BME280;47007;49.252;8.904;2023-04-02T03:28:46;99093.88;;;9.54;100.00
10638;BME280;47007;49.252;8.904;2023-04-02T03:29:33;99098.75;;;9.51;100.00
10638;BME280;47007;49.252;8.904;2023-04-02T03:30:45;99100.41;;;9.52;100.00
10638;BME280;47007;49.252;8.904;2023-04-02T03:31:40;99103.63;;;9.47;100.00
10638;BME280;47007;49.252;8.904;2023-04-02T03:32:30;99091.03;;;9.49;100.00
10638;BME280;47007;49.252;8.904;2023-04-02T03:33:20;99093.84;;;9.48;100.00
10638;BME280;47007;49.252;8.904;2023-04-02T03:34:13;99099.53;;;9.45;100.00
10638;BME280;47007;49.252;8.904;2023-04-02T03:35:02;99104.38;;;9.41;100.00
10638;BME280;47007;49.252;8.904;2023-04-02T03:37:40;99101.06;;;9.32;100.00
10638;BME280;47007;49.252;8.904;2023-04-02T03:38:29;99105.34;;;9.33;100.00
10638;BME280;47007;49.252;8.904;2023-04-02T03:39:32;99107.63;;;9.36;100.00
10638;BME280;47007;49.252;8.904;2023-04-02T03:40:29;99106.00;;;9.42;100.00
10638;BME280;47007;49.252;8.904;2023-04-02T03:41:23;99109.09;;;9.46;100.00
10638;BME280;47007;49.252;8.904;2023-04-02T03:42:25;99104.81;;;9.45;100.00
10638;BME280;47007;49.252;8.904;2023-04-02T03:44:04;99111.06;;;9.37;100.00
10638;BME280;47007;49.252;8.904;2023-04-02T03:44:53;99102.25;;;9.30;100.00
10638;BME280;47007;49.252;8.904;2023-04-02T03:45:40;99115.13;;;9.40;100.00
10638;BME280;47007;49.252;8.904;2023-04-02T03:46:31;99103.34;;;9.35;100.00
10638;BME280;47007;49.252;8.904;2023-04-02T03:47:19;99101.88;;;9.33;100.00
10638;BME280;47007;49.252;8.904;2023-04-02T03:48:19;99116.03;;;9.47;100.00
10638;BME280;47007;49.252;8.904;2023-04-02T03:49:08;99119.72;;;9.52;100.00
10638;BME280;47007;49.252;8.904;2023-04-02T03:52:24;99103.19;;;9.44;100.00
10638;BME280;47007;49.252;8.904;2023-04-02T03:53:10;99119.50;;;9.54;100.00
10638;BME280;47007;49.252;8.904;2023-04-02T03:53:53;99113.22;;;9.55;100.00
10638;BME280;47007;49.252;8.904;2023-04-02T03:54:35;99118.50;;;9.55;100.00
10638;BME280;47007;49.252;8.904;2023-04-02T03:55:21;99121.59;;;9.58;100.00
10638;BME280;47007;49.252;8.904;2023-04-02T03:56:05;99116.69;;;9.55;100.00
10638;BME280;47007;49.252;8.904;2023-04-02T03:56:48;99118.75;;;9.60;100.00
10638;BME280;47007;49.252;8.904;2023-04-02T03:57:54;99116.69;;;9.55;100.00
10638;BME280;47007;49.252;8.904;2023-04-02T03:58:45;99112.38;;;9.48;100.00
10638;BME280;47007;49.252;8.904;2023-04-02T03:59:36;99123.16;;;9.53;100.00
10638;BME280;47007;49.252;8.904;2023-04-02T04:00:34;99124.41;;;9.50;100.00
10638;BME280;47007;49.252;8.904;2023-04-02T04:01:27;99125.78;;;9.46;100.00
10638;BME280;47007;49.252;8.904;2023-04-02T04:03:24;99095.31;;;9.22;100.00
10638;BME280;47007;49.252;8.904;2023-04-02T04:04:16;99123.28;;;9.38;100.00
10638;BME280;47007;49.252;8.904;2023-04-02T04:05:00;99131.59;;;9.35;100.00
10638;BME280;47007;49.252;8.904;2023-04-02T04:05:51;99120.56;;;9.25;100.00
10638;BME280;47007;49.252;8.904;2023-04-02T04:06:39;99135.81;;;9.29;100.00
10638;BME280;47007;49.252;8.904;2023-04-02T04:07:39;99128.28;;;9.26;100.00
10638;BME280;47007;49.252;8.904;2023-04-02T04:08:32;99122.31;;;9.18;100.00
10638;BME280;47007;49.252;8.904;2023-04-02T04:10:07;99133.69;;;9.18;100.00
10638;BME280;47007;49.252;8.904;2023-04-02T04:10:58;99130.03;;;9.19;100.00
10638;BME280;47007;49.252;8.904;2023-04-02T04:12:30;99135.78;;;9.23;100.00
10638;BME280;47007;49.252;8.904;2023-04-02T04:12:47;99088.53;;;8.92;100.00
10638;BME280;47007;49.252;8.904;2023-04-02T04:13:45;99131.13;;;9.25;100.00
10638;BME280;47007;49.252;8.904;2023-04-02T04:14:31;99137.09;;;9.33;100.00
10638;BME280;47007;49.252;8.904;2023-04-02T04:15:20;99121.56;;;9.24;100.00
10638;BME280;47007;49.252;8.904;2023-04-02T04:16:07;99144.44;;;9.38;100.00
10638;BME280;47007;49.252;8.904;2023-04-02T04:16:53;99140.16;;;9.37;100.00
10638;BME280;47007;49.252;8.904;2023-04-02T04:19:17;99142.75;;;9.30;100.00
10638;BME280;47007;49.252;8.904;2023-04-02T04:20:13;99144.56;;;9.30;100.00
10638;BME280;47007;49.252;8.904;2023-04-02T04:21:00;99154.16;;;9.31;100.00
10638;BME280;47007;49.252;8.904;2023-04-02T04:21:51;99156.41;;;9.34;100.00
10638;BME280;47007;49.252;8.904;2023-04-02T04:22:40;99147.28;;;9.36;100.00
10638;BME280;47007;49.252;8.904;2023-04-02T04:23:36;99153.00;;;9.40;100.00
10638;BME280;47007;49.252;8.904;2023-04-02T04:24:23;99157.91;;;9.43;100.00
10638;BME280;47007;49.252;8.904;2023-04-02T04:25:28;99141.59;;;9.40;100.00
10638;BME280;47007;49.252;8.904;2023-04-02T04:26:21;99141.03;;;9.44;100.00
10638;BME280;47007;49.252;8.904;2023-04-02T04:28:33;99152.34;;;9.59;100.00
10638;BME280;47007;49.252;8.904;2023-04-02T04:30:42;99155.41;;;9.63;100.00
10638;BME280;47007;49.252;8.904;2023-04-02T04:31:39;99155.41;;;9.63;100.00
10638;BME280;47007;49.252;8.904;2023-04-02T04:32:36;99156.00;;;9.65;100.00
10638;BME280;47007;49.252;8.904;2023-04-02T04:33:30;99160.94;;;9.68;100.00
10638;BME280;47007;49.252;8.904;2023-04-02T04:34:39;99156.47;;;9.68;100.00
10638;BME280;47007;49.252;8.904;2023-04-02T04:35:36;99164.41;;;9.68;100.00
10638;BME280;47007;49.252;8.904;2023-04-02T04:36:28;99161.94;;;9.67;100.00
10638;BME280;47007;49.252;8.904;2023-04-02T04:37:27;99151.97;;;9.62;100.00
10638;BME280;47007;49.252;8.904;2023-04-02T04:39:13;99165.22;;;9.69;100.00
10638;BME280;47007;49.252;8.904;2023-04-02T04:40:08;99164.03;;;9.71;100.00
10638;BME280;47007;49.252;8.904;2023-04-02T04:40:59;99155.81;;;9.66;100.00
10638;BME280;47007;49.252;8.904;2023-04-02T04:41:45;99166.28;;;9.75;100.00
10638;BME280;47007;49.252;8.904;2023-04-02T04:42:32;99163.63;;;9.75;100.00
10638;BME280;47007;49.252;8.904;2023-04-02T04:44:24;99166.09;;;9.76;100.00
10638;BME280;47007;49.252;8.904;2023-04-02T04:46:53;99179.91;;;9.78;100.00
10638;BME280;47007;49.252;8.904;2023-04-02T04:47:41;99178.28;;;9.77;100.00
10638;BME280;47007;49.252;8.904;2023-04-02T04:49:26;99171.38;;;9.76;100.00
10638;BME280;47007;49.252;8.904;2023-04-02T04:50:24;99173.22;;;9.76;100.00
10638;BME280;47007;49.252;8.904;2023-04-02T04:51:16;99174.59;;;9.71;100.00
10638;BME280;47007;49.252;8.904;2023-04-02T04:52:51;99181.53;;;9.72;100.00
10638;BME280;47007;49.252;8.904;2023-04-02T04:53:44;99165.41;;;9.67;100.00
10638;BME280;47007;49.252;8.904;2023-04-02T04:54:27;99178.81;;;9.66;100.00
10638;BME280;47007;49.252;8.904;2023-04-02T04:55:42;99193.13;;;9.71;100.00
10638;BME280;47007;49.252;8.904;2023-04-02T04:56:28;99186.19;;;9.70;100.00
10638;BME280;47007;49.252;8.904;2023-04-02T04:57:34;99194.13;;;9.70;100.00
10638;BME280;47007;49.252;8.904;2023-04-02T04:58:26;99194.94;;;9.71;100.00
10638;BME280;47007;49.252;8.904;2023-04-02T04:59:28;99199.03;;;9.73;100.00
10638;BME280;47007;49.252;8.904;2023-04-02T05:01:51;99201.69;;;9.73;100.00
10638;BME280;47007;49.252;8.904;2023-04-02T05:02:59;99204.56;;;9.79;100.00
10638;BME280;47007;49.252;8.904;2023-04-02T05:04:58;99196.53;;;9.65;100.00
10638;BME280;47007;49.252;8.904;2023-04-02T05:05:41;99215.31;;;9.70;100.00
10638;BME280;47007;49.252;8.904;2023-04-02T05:08:21;99210.75;;;9.64;100.00
10638;BME280;47007;49.252;8.904;2023-04-02T05:10:24;99220.22;;;9.73;100.00
10638;BME280;47007;49.252;8.904;2023-04-02T05:11:20;99212.09;;;9.75;100.00
10638;BME280;47007;49.252;8.904;2023-04-02T05:12:36;99218.19;;;9.76;100.00
10638;BME280;47007;49.252;8.904;2023-04-02T05:13:36;99218.97;;;9.69;100.00
10638;BME280;47007;49.252;8.904;2023-04-02T05:14:28;99222.59;;;9.68;100.00
10638;BME280;47007;49.252;8.904;2023-04-02T05:15:37;99232.38;;;9.68;100.00
10638;BME280;47007;49.252;8.904;2023-04-02T05:16:30;99216.06;;;9.64;100.00
10638;BME280;47007;49.252;8.904;2023-04-02T05:17:20;99227.69;;;9.63;100.00
10638;BME280;47007;49.252;8.904;2023-04-02T05:19:20;99227.38;;;9.52;100.00
10638;BME280;47007;49.252;8.904;2023-04-02T05:21:03;99227.69;;;9.42;100.00
10638;BME280;47007;49.252;8.904;2023-04-02T05:21:52;99230.78;;;9.46;100.00
10638;BME280;47007;49.252;8.904;2023-04-02T05:24:37;99236.72;;;9.54;100.00
10638;BME280;47007;49.252;8.904;2023-04-02T05:25:25;99232.91;;;9.57;100.00
10638;BME280;47007;49.252;8.904;2023-04-02T05:26:18;99238.63;;;9.60;100.00
10638;BME280;47007;49.252;8.904;2023-04-02T05:27:16;99223.91;;;9.51;100.00
10638;BME280;47007;49.252;8.904;2023-04-02T05:28:16;99237.84;;;9.66;100.00
10638;BME280;47007;49.252;8.904;2023-04-02T05:29:19;99236.03;;;9.67;100.00
10638;BME280;47007;49.252;8.904;2023-04-02T05:30:53;99239.88;;;9.64;100.00
10638;BME280;47007;49.252;8.904;2023-04-02T05:31:44;99253.53;;;9.68;100.00